This is the latest recevied weather packets stored in our database for station/object DK8HC-WX. If no packets are shown the sender has not sent any weather packets the latest 10 day(s).
| Time | Temp. | Humidity | Pressure | Rain* | Wind** | Luminosity | Snow |
|---|---|---|---|---|---|---|---|
| 1777299077 | 28.33° C | 24% | 1026.1 hPa | - | - | - | - |
| 1777298477 | 26.11° C | 25% | 1025.8 hPa | - | - | - | - |
| 1777297877 | 27.22° C | 26% | 1026.1 hPa | - | - | - | - |
| 1777297277 | 27.22° C | 27% | 1026.1 hPa | - | - | - | - |
| 1777296677 | 27.22° C | 29% | 1026.3 hPa | - | - | - | - |
| 1777296077 | 26.11° C | 30% | 1026.2 hPa | - | - | - | - |
| 1777295477 | 23.33° C | 36% | 1026.1 hPa | - | - | - | - |
| 1777294877 | 22.78° C | 35% | 1025.8 hPa | - | - | - | - |
| 1777294277 | 22.78° C | 38% | 1026.3 hPa | - | - | - | - |
| 1777293077 | 23.33° C | 39% | 1026.2 hPa | - | - | - | - |
| 1777292477 | 22.22° C | 43% | 1026.4 hPa | - | - | - | - |
| 1777291877 | 20.56° C | 41% | 1025.8 hPa | - | - | - | - |
| 1777291277 | 22.78° C | 44% | 1026.5 hPa | - | - | - | - |
| 1777290677 | 20° C | 48% | 1026.4 hPa | - | - | - | - |
| 1777290077 | 18.33° C | 48% | 1026.1 hPa | - | - | - | - |
| 1777289477 | 20° C | 45% | 1026.3 hPa | - | - | - | - |
| 1777288877 | 22.22° C | 46% | 1026.7 hPa | - | - | - | - |
| 1777288277 | 21.67° C | 48% | 1026.7 hPa | - | - | - | - |
| 1777287676 | 21.67° C | 51% | 1026.9 hPa | - | - | - | - |
| 1777287076 | 21.11° C | 47% | 1026.6 hPa | - | - | - | - |
| 1777286476 | 21.67° C | 54% | 1027 hPa | - | - | - | - |
| 1777285877 | 21.11° C | 55% | 1026.9 hPa | - | - | - | - |
| 1777285276 | 19.44° C | 57% | 1026.8 hPa | - | - | - | - |
| 1777284676 | 18.89° C | 61% | 1026.8 hPa | - | - | - | - |
| 1777284076 | 16.67° C | 62% | 1026.8 hPa | - | - | - | - |
* Rain since midnight (hover to see other rain measurements)
** Current wind speed in m/s (hover to see current wind gust speed)